Time;durP1;ratioP1;P1;durP2;ratioP2;P2;SDS_P1;SDS_P2;PMS_P1;PMS_P2;Temp;Humidity;BMP_temperature;BMP_pressure;BME280_temperature;BME280_humidity;BME280_pressure;Samples;Min_cycle;Max_cycle;Signal;HPM_P1;HPM_P2
2022/12/12 00:00:16;;;;;;;1999.90;999.90;;;-3.60;99.90;;;;;;5047493;28;20462;-67
2022/12/12 00:02:43;;;;;;;1999.90;999.90;;;-3.60;99.90;;;;;;5047367;28;20559;-67
2022/12/12 00:05:16;;;;;;;1999.90;999.90;;;-3.50;99.90;;;;;;5048052;28;20465;-67
2022/12/12 00:07:43;;;;;;;1999.90;999.90;;;-3.50;99.90;;;;;;5048069;28;20477;-67
2022/12/12 00:10:10;;;;;;;1999.90;999.90;;;-3.50;99.90;;;;;;5049279;28;20462;-68
2022/12/12 00:12:37;;;;;;;1999.90;999.90;;;-3.50;99.90;;;;;;5047698;28;20489;-67
2022/12/12 00:15:05;;;;;;;1999.90;999.90;;;-3.50;99.90;;;;;;5047557;28;20481;-67
2022/12/12 00:17:33;;;;;;;1999.90;999.90;;;-3.50;99.90;;;;;;5048566;28;20856;-67
2022/12/12 00:20:00;;;;;;;1999.90;999.90;;;-3.50;99.90;;;;;;5048373;28;20470;-67
2022/12/12 00:22:26;;;;;;;1999.90;999.90;;;-3.60;99.90;;;;;;5049061;28;21014;-68
2022/12/12 00:24:53;;;;;;;1999.90;999.90;;;-3.50;99.90;;;;;;5046956;28;20454;-67
2022/12/12 00:27:20;;;;;;;1999.90;999.90;;;-3.50;99.90;;;;;;5049257;28;20974;-67
2022/12/12 00:29:51;;;;;;;1999.90;999.90;;;-3.50;99.90;;;;;;5047544;28;20462;-68
2022/12/12 00:32:18;;;;;;;1999.90;999.90;;;-3.40;99.90;;;;;;5047104;28;20486;-66
2022/12/12 00:34:47;;;;;;;1999.90;999.90;;;-3.30;99.90;;;;;;5047194;28;20489;-67
2022/12/12 00:37:13;;;;;;;1999.90;999.90;;;-3.40;99.90;;;;;;5049592;28;20470;-65
2022/12/12 00:39:40;;;;;;;1999.90;999.90;;;-3.30;99.90;;;;;;5048144;28;20458;-67
2022/12/12 00:42:07;;;;;;;1999.90;999.90;;;-3.30;99.90;;;;;;5050916;28;20478;-67
2022/12/12 00:44:34;;;;;;;1999.90;999.90;;;-3.30;99.90;;;;;;5051681;28;20458;-67
2022/12/12 00:47:01;;;;;;;1999.90;999.90;;;-3.30;99.90;;;;;;5051239;28;20471;-67
2022/12/12 00:49:28;;;;;;;1999.90;999.90;;;-3.20;99.90;;;;;;5051333;28;20968;-66
2022/12/12 00:51:56;;;;;;;1999.90;999.90;;;-3.10;99.90;;;;;;5052191;28;20981;-66
2022/12/12 00:54:23;;;;;;;1999.90;999.90;;;-3.00;99.90;;;;;;5051827;28;20505;-66
2022/12/12 00:56:50;;;;;;;1999.90;999.90;;;-2.90;99.90;;;;;;5050015;28;20820;-67
2022/12/12 00:59:18;;;;;;;1999.90;999.90;;;-3.00;99.90;;;;;;5050636;28;20469;-65
2022/12/12 01:01:46;;;;;;;1999.90;999.90;;;-2.90;99.90;;;;;;5051041;28;20462;-67
2022/12/12 01:04:12;;;;;;;1999.90;999.90;;;-2.90;99.90;;;;;;5051868;28;20458;-67
2022/12/12 01:06:39;;;;;;;1999.90;999.90;;;-2.90;99.90;;;;;;5051929;28;20559;-67
2022/12/12 01:09:07;;;;;;;1999.90;999.90;;;-2.90;99.90;;;;;;5050914;28;20809;-67
2022/12/12 01:11:34;;;;;;;1999.90;999.90;;;-2.90;99.90;;;;;;5051977;28;20458;-67
2022/12/12 01:14:01;;;;;;;1999.90;999.90;;;-2.90;99.90;;;;;;5051563;28;20497;-67
2022/12/12 01:16:28;;;;;;;1999.90;999.90;;;-2.80;99.90;;;;;;5045504;28;20457;-67
2022/12/12 01:18:55;;;;;;;1999.90;999.90;;;-2.90;99.90;;;;;;5049170;28;20458;-67
2022/12/12 01:21:22;;;;;;;1999.90;999.90;;;-2.90;99.90;;;;;;5052654;28;20473;-66
2022/12/12 01:23:49;;;;;;;1999.90;999.90;;;-2.80;99.90;;;;;;5051017;28;20478;-67
2022/12/12 01:26:20;;;;;;;1999.90;999.90;;;-2.80;99.90;;;;;;5051738;28;20458;-68
2022/12/12 01:28:47;;;;;;;1999.90;999.90;;;-2.80;99.90;;;;;;5051218;28;20561;-66
2022/12/12 01:31:14;;;;;;;1999.90;999.90;;;-2.80;99.90;;;;;;5050605;28;20490;-67
2022/12/12 01:33:44;;;;;;;1999.90;999.90;;;-2.80;99.90;;;;;;5051197;28;20486;-67
2022/12/12 01:36:15;;;;;;;1999.90;999.90;;;-2.80;99.90;;;;;;5051017;28;20486;-67
2022/12/12 01:38:42;;;;;;;1999.90;999.90;;;-2.80;99.90;;;;;;5051187;28;20458;-67
2022/12/12 01:41:09;;;;;;;1999.90;999.90;;;-3.20;99.90;;;;;;5051075;28;20461;-66
2022/12/12 01:43:37;;;;;;;1999.90;999.90;;;-2.60;99.90;;;;;;5052225;28;20861;-66
2022/12/12 01:46:32;;;;;;;1999.90;999.90;;;-2.50;99.90;;;;;;5048279;28;22052;-67
2022/12/12 01:49:02;;;;;;;1999.90;999.90;;;-2.50;99.90;;;;;;5051280;28;20586;-67
2022/12/12 01:51:29;;;;;;;1999.90;999.90;;;-2.40;99.90;;;;;;5051289;28;20458;-68
2022/12/12 01:54:02;;;;;;;1999.90;999.90;;;-2.50;99.90;;;;;;5050678;28;20497;-67
2022/12/12 01:56:30;;;;;;;1999.90;999.90;;;-2.60;99.90;;;;;;5045857;28;20461;-68
2022/12/12 01:59:00;;;;;;;1999.90;999.90;;;-2.70;99.90;;;;;;5049421;28;20477;-67
2022/12/12 02:01:27;;;;;;;1999.90;999.90;;;-2.70;99.90;;;;;;5051808;28;20466;-68
2022/12/12 02:03:54;;;;;;;1999.90;999.90;;;-2.60;99.90;;;;;;5050054;28;20478;-66
2022/12/12 02:06:26;;;;;;;1999.90;999.90;;;-2.60;99.90;;;;;;5049257;28;20462;-67
2022/12/12 02:08:56;;;;;;;1999.90;999.90;;;-2.60;99.90;;;;;;5050754;28;20454;-68
2022/12/12 02:11:23;;;;;;;1999.90;999.90;;;-2.60;99.90;;;;;;5050161;28;20456;-67
2022/12/12 02:13:50;;;;;;;1999.90;999.90;;;-2.50;99.90;;;;;;5049999;28;20481;-67
2022/12/12 02:16:30;;;;;;;1999.90;999.90;;;-2.50;99.90;;;;;;5049944;28;20462;-67
2022/12/12 02:19:05;;;;;;;1999.90;999.90;;;-2.50;99.90;;;;;;5050532;28;20477;-67
2022/12/12 02:21:38;;;;;;;1999.90;999.90;;;-2.50;99.90;;;;;;5046635;28;20465;-68
2022/12/12 02:24:45;;;;;;;1999.90;999.90;;;-2.50;99.90;;;;;;5050508;28;20481;-67
2022/12/12 02:27:44;;;;;;;1999.90;999.90;;;-2.50;99.90;;;;;;5051409;28;20454;-68
2022/12/12 02:30:18;;;;;;;1999.90;999.90;;;-2.50;99.90;;;;;;5050222;28;20454;-67
2022/12/12 02:32:57;;;;;;;1999.90;999.90;;;-2.40;99.90;;;;;;5050468;28;20478;-66
2022/12/12 02:35:33;;;;;;;1999.90;999.90;;;-2.50;99.90;;;;;;5050325;28;20482;-67
2022/12/12 02:38:07;;;;;;;1999.90;999.90;;;-2.40;99.90;;;;;;5049692;28;20828;-66
2022/12/12 02:40:38;;;;;;;1999.90;999.90;;;-2.40;99.90;;;;;;5046125;28;20469;-67
2022/12/12 02:43:10;;;;;;;1999.90;999.90;;;-2.40;99.90;;;;;;5049257;28;22292;-67
2022/12/12 02:45:40;;;;;;;1999.90;999.90;;;-2.40;99.90;;;;;;5044842;28;20518;-67
2022/12/12 02:48:13;;;;;;;1999.90;999.90;;;-2.30;99.90;;;;;;5050102;28;20478;-67
2022/12/12 02:50:41;;;;;;;1999.90;999.90;;;-2.40;99.90;;;;;;5052054;28;20454;-68
2022/12/12 02:53:08;;;;;;;1999.90;999.90;;;-2.40;99.90;;;;;;5049473;28;20505;-67
2022/12/12 02:55:35;;;;;;;1999.90;999.90;;;-2.40;99.90;;;;;;5050236;28;20477;-67
2022/12/12 02:58:04;;;;;;;1999.90;999.90;;;-2.40;99.90;;;;;;5048724;28;20469;-67
2022/12/12 03:00:39;;;;;;;1999.90;999.90;;;-2.30;99.90;;;;;;5049399;28;20845;-68
2022/12/12 03:09:27;;;;;;;1999.90;999.90;;;-2.40;99.90;;;;;;5024110;28;20817;-68
2022/12/12 03:12:04;;;;;;;1999.90;999.90;;;-2.50;99.90;;;;;;5049958;28;20458;-67
2022/12/12 03:14:45;;;;;;;1999.90;999.90;;;-2.40;99.90;;;;;;5048530;28;20478;-67
2022/12/12 03:17:19;;;;;;;1999.90;999.90;;;-2.40;99.90;;;;;;5049821;28;20469;-67
2022/12/12 03:19:59;;;;;;;1999.90;999.90;;;-2.30;99.90;;;;;;5051260;28;20454;-67
2022/12/12 03:22:30;;;;;;;1999.90;999.90;;;-2.30;99.90;;;;;;5050363;28;20470;-67
2022/12/12 03:25:03;;;;;;;1999.90;999.90;;;-2.20;99.90;;;;;;5048993;28;20457;-67
2022/12/12 03:27:35;;;;;;;1999.90;999.90;;;-2.30;99.90;;;;;;5049394;28;20986;-67
2022/12/12 03:30:05;;;;;;;1999.90;999.90;;;-2.40;99.90;;;;;;5048942;28;20458;-68
2022/12/12 03:32:39;;;;;;;1999.90;999.90;;;-2.60;99.90;;;;;;5054488;28;20489;-67
2022/12/12 03:35:13;;;;;;;1999.90;999.90;;;-2.70;99.90;;;;;;5052360;28;20486;-67
2022/12/12 03:37:45;;;;;;;1999.90;999.90;;;-2.90;99.90;;;;;;5049835;28;20461;-67
2022/12/12 03:40:15;;;;;;;1999.90;999.90;;;-3.00;99.90;;;;;;5053285;28;20471;-67
2022/12/12 03:42:47;;;;;;;1999.90;999.90;;;-2.90;99.90;;;;;;5052968;28;20485;-67
2022/12/12 03:45:19;;;;;;;1999.90;999.90;;;-3.00;99.90;;;;;;5048616;28;21080;-67
2022/12/12 03:47:51;;;;;;;1999.90;999.90;;;-3.10;99.90;;;;;;5046407;28;20458;-67
2022/12/12 03:50:22;;;;;;;1999.90;999.90;;;-3.10;99.90;;;;;;5048742;28;20466;-67
2022/12/12 03:52:54;;;;;;;1999.90;999.90;;;-3.10;99.90;;;;;;5049762;28;20486;-67
2022/12/12 03:55:24;;;;;;;1999.90;999.90;;;-3.20;99.90;;;;;;5047190;28;20475;-67
2022/12/12 03:57:57;;;;;;;1999.90;999.90;;;-3.20;99.90;;;;;;5046966;28;20463;-67
2022/12/12 04:00:24;;;;;;;1999.90;999.90;;;-3.20;99.90;;;;;;5049654;28;20458;-67
2022/12/12 04:02:56;;;;;;;1999.90;999.90;;;-3.20;99.90;;;;;;5048807;28;21075;-67
2022/12/12 04:05:28;;;;;;;1999.90;999.90;;;-3.30;99.90;;;;;;5048265;28;20465;-67
2022/12/12 04:08:01;;;;;;;1999.90;999.90;;;-3.30;99.90;;;;;;5048888;28;20458;-67
2022/12/12 04:13:26;;;;;;;1999.90;999.90;;;-3.20;99.90;;;;;;5047908;28;21070;-67
2022/12/12 04:15:59;;;;;;;1999.90;999.90;;;-3.00;99.90;;;;;;5047794;28;20474;-66
2022/12/12 04:18:33;;;;;;;1999.90;999.90;;;-2.90;99.90;;;;;;5049063;28;20451;-68
2022/12/12 04:24:05;;;;;;;1999.90;999.90;;;-3.00;99.90;;;;;;5045659;28;20482;-67
2022/12/12 04:26:38;;;;;;;1999.90;999.90;;;-3.00;99.90;;;;;;5048433;28;20450;-67
2022/12/12 04:29:19;;;;;;;1999.90;999.90;;;-3.00;99.90;;;;;;5048604;28;20458;-68
2022/12/12 04:31:52;;;;;;;1999.90;999.90;;;-3.00;99.90;;;;;;5043385;28;20465;-67
2022/12/12 04:34:25;;;;;;;1999.90;999.90;;;-2.80;99.90;;;;;;5048552;28;20917;-66
2022/12/12 04:36:54;;;;;;;1999.90;999.90;;;-2.70;99.90;;;;;;5048623;28;20845;-67
2022/12/12 04:39:22;;;;;;;1999.90;999.90;;;-2.80;99.90;;;;;;5049378;28;20467;-68
2022/12/12 04:41:52;;;;;;;1999.90;999.90;;;-2.70;99.90;;;;;;5048339;28;20980;-68
2022/12/12 04:44:22;;;;;;;1999.90;999.90;;;-2.70;99.90;;;;;;5048817;28;20541;-67
2022/12/12 04:46:53;;;;;;;1999.90;999.90;;;-2.60;99.90;;;;;;5049325;28;20462;-68
2022/12/12 04:49:24;;;;;;;1999.90;999.90;;;-2.60;99.90;;;;;;5047992;28;20462;-67
2022/12/12 04:51:56;;;;;;;1999.90;999.90;;;-2.70;99.90;;;;;;5049071;28;20843;-67
2022/12/12 04:54:28;;;;;;;1999.90;999.90;;;-2.70;99.90;;;;;;5046439;28;20463;-66
2022/12/12 04:56:58;;;;;;;1999.90;999.90;;;-2.70;99.90;;;;;;5046920;28;20458;-67
2022/12/12 04:59:25;;;;;;;1999.90;999.90;;;-2.60;99.90;;;;;;5049141;28;20454;-67
2022/12/12 05:01:58;;;;;;;1999.90;999.90;;;-2.60;99.90;;;;;;5049238;28;20459;-68
2022/12/12 05:04:30;;;;;;;1999.90;999.90;;;-2.50;99.90;;;;;;5048373;28;20512;-66
2022/12/12 05:07:04;;;;;;;1999.90;999.90;;;-2.40;99.90;;;;;;5046486;28;20465;-67
2022/12/12 05:09:31;;;;;;;1999.90;999.90;;;-2.40;99.90;;;;;;5045791;28;20818;-67
2022/12/12 05:11:58;;;;;;;1999.90;999.90;;;-2.30;99.90;;;;;;5048180;28;20465;-67
2022/12/12 05:14:26;;;;;;;1999.90;999.90;;;-2.30;99.90;;;;;;5047770;28;20466;-66
2022/12/12 05:16:58;;;;;;;1999.90;999.90;;;-2.30;99.90;;;;;;5049432;28;20454;-67
2022/12/12 05:19:24;;;;;;;1999.90;999.90;;;-2.30;99.90;;;;;;5047966;28;20450;-68
2022/12/12 05:21:51;;;;;;;1999.90;999.90;;;-2.30;99.90;;;;;;5047705;28;20461;-67
2022/12/12 05:24:19;;;;;;;1999.90;999.90;;;-2.30;99.90;;;;;;5045549;28;20466;-66
2022/12/12 05:26:46;;;;;;;1999.90;999.90;;;-2.40;99.90;;;;;;5048467;28;20501;-66
2022/12/12 05:29:13;;;;;;;1999.90;999.90;;;-2.40;99.90;;;;;;5051584;28;20461;-67
2022/12/12 05:31:39;;;;;;;1999.90;999.90;;;-2.40;99.90;;;;;;5052517;28;20458;-67
2022/12/12 05:34:06;;;;;;;1999.90;999.90;;;-2.40;99.90;;;;;;5051139;28;20458;-67
2022/12/12 05:36:33;;;;;;;1999.90;999.90;;;-2.50;99.90;;;;;;5050577;28;20486;-66
2022/12/12 05:39:00;;;;;;;1999.90;999.90;;;-2.50;99.90;;;;;;5050440;28;20553;-67
2022/12/12 05:41:28;;;;;;;1999.90;999.90;;;-2.50;99.90;;;;;;5050914;28;20462;-68
2022/12/12 05:43:55;;;;;;;1999.90;999.90;;;-2.50;99.90;;;;;;5052075;28;20477;-66
2022/12/12 05:46:22;;;;;;;1999.90;999.90;;;-2.50;99.90;;;;;;5049867;28;20454;-67
2022/12/12 05:48:49;;;;;;;1999.90;999.90;;;-2.50;99.90;;;;;;5051966;28;20450;-67
2022/12/12 05:51:17;;;;;;;1999.90;999.90;;;-2.40;99.90;;;;;;5050307;28;20466;-67
2022/12/12 05:53:44;;;;;;;1999.90;999.90;;;-2.40;99.90;;;;;;5049653;28;20920;-67
2022/12/12 05:56:11;;;;;;;1999.90;999.90;;;-2.40;99.90;;;;;;5050166;28;20482;-66
2022/12/12 05:58:40;;;;;;;1999.90;999.90;;;-2.40;99.90;;;;;;5049961;28;20462;-66
2022/12/12 06:01:07;;;;;;;1999.90;999.90;;;-2.30;99.90;;;;;;5051088;28;20845;-67
2022/12/12 06:03:34;;;;;;;1999.90;999.90;;;-2.20;99.90;;;;;;5049098;28;20477;-66
2022/12/12 06:06:01;;;;;;;1999.90;999.90;;;-2.30;99.90;;;;;;5049505;28;20481;-67
2022/12/12 06:08:28;;;;;;;1999.90;999.90;;;-2.20;99.90;;;;;;5049371;28;20839;-67
2022/12/12 06:10:55;;;;;;;1999.90;999.90;;;-2.10;99.90;;;;;;5052006;28;20458;-68
2022/12/12 06:13:21;;;;;;;1999.90;999.90;;;-2.10;99.90;;;;;;5050645;28;20493;-68
2022/12/12 06:15:50;;;;;;;1999.90;999.90;;;-2.00;99.90;;;;;;5051137;28;20528;-67
2022/12/12 06:18:16;;;;;;;1999.90;999.90;;;-1.90;99.90;;;;;;5050979;28;20473;-66
2022/12/12 06:20:43;;;;;;;1999.90;999.90;;;-1.90;99.90;;;;;;5050914;28;20937;-68
2022/12/12 06:23:10;;;;;;;1999.90;999.90;;;-1.80;99.90;;;;;;5050840;28;20488;-68
2022/12/12 06:25:37;;;;;;;1999.90;999.90;;;-1.70;99.90;;;;;;5049989;28;20459;-67
2022/12/12 06:28:03;;;;;;;1999.90;999.90;;;-1.70;99.90;;;;;;5050285;28;20471;-66
2022/12/12 06:30:30;;;;;;;1999.90;999.90;;;-1.70;99.90;;;;;;5051129;28;20454;-66
2022/12/12 06:32:58;;;;;;;1999.90;999.90;;;-1.70;99.90;;;;;;5050461;28;20549;-68
2022/12/12 06:35:25;;;;;;;1999.90;999.90;;;-1.70;99.90;;;;;;5049652;28;20487;-68
2022/12/12 06:37:52;;;;;;;1999.90;999.90;;;-1.60;99.90;;;;;;5051258;28;20458;-68
2022/12/12 06:40:19;;;;;;;1999.90;999.90;;;-1.60;99.90;;;;;;5050230;28;20481;-67
2022/12/12 06:42:46;;;;;;;1999.90;999.90;;;-1.60;99.90;;;;;;5050845;28;20482;-67
2022/12/12 06:45:12;;;;;;;1999.90;999.90;;;-1.60;99.90;;;;;;5049597;28;20481;-68
2022/12/12 06:47:39;;;;;;;1999.90;999.90;;;-1.50;99.90;;;;;;5051496;28;20867;-68
2022/12/12 06:50:08;;;;;;;1999.90;999.90;;;-1.60;99.90;;;;;;5047642;28;20840;-67
2022/12/12 06:52:35;;;;;;;1999.90;999.90;;;-1.50;99.90;;;;;;5049280;28;20481;-68
2022/12/12 06:55:02;;;;;;;1999.90;999.90;;;-1.60;99.90;;;;;;5057152;28;20454;-67
2022/12/12 06:57:29;;;;;;;1999.90;999.90;;;-1.60;99.90;;;;;;5047327;28;21044;-67
2022/12/12 06:59:55;;;;;;;1999.90;999.90;;;-1.60;99.90;;;;;;5049093;28;20462;-67
2022/12/12 07:02:22;;;;;;;1999.90;999.90;;;-1.60;99.90;;;;;;5048748;28;20496;-68
2022/12/12 07:04:49;;;;;;;1999.90;999.90;;;-1.60;99.90;;;;;;5047818;28;20811;-66
2022/12/12 07:07:17;;;;;;;1999.90;999.90;;;-1.50;99.90;;;;;;5045578;28;20480;-67
2022/12/12 07:09:45;;;;;;;1999.90;999.90;;;-1.40;99.90;;;;;;5048492;28;20815;-68
2022/12/12 07:12:12;;;;;;;1999.90;999.90;;;-1.30;99.90;;;;;;5050856;28;20480;-67
2022/12/12 07:14:39;;;;;;;1999.90;999.90;;;-1.40;99.90;;;;;;5058951;28;20465;-68
2022/12/12 07:17:06;;;;;;;1999.90;999.90;;;-1.40;99.90;;;;;;5061462;28;20477;-68
2022/12/12 07:19:33;;;;;;;1999.90;999.90;;;-1.40;99.90;;;;;;5047398;28;20458;-67
2022/12/12 07:22:00;;;;;;;1999.90;999.90;;;-1.50;99.90;;;;;;5047360;28;20458;-67
2022/12/12 07:24:28;;;;;;;1999.90;999.90;;;-1.40;99.90;;;;;;5048056;28;20458;-67
2022/12/12 07:26:55;;;;;;;1999.90;999.90;;;-1.60;99.90;;;;;;5049032;28;20455;-68
2022/12/12 07:29:21;;;;;;;1999.90;999.90;;;-1.60;99.90;;;;;;5049980;28;20470;-68
2022/12/12 07:31:48;;;;;;;1999.90;999.90;;;-1.60;99.90;;;;;;5048312;28;20465;-67
2022/12/12 07:34:15;;;;;;;1999.90;999.90;;;-1.60;99.90;;;;;;5049321;28;20469;-67
2022/12/12 07:36:42;;;;;;;1999.90;999.90;;;-1.60;99.90;;;;;;5042952;28;20482;-67
2022/12/12 07:39:08;;;;;;;1999.90;999.90;;;-1.50;99.90;;;;;;5048864;28;20722;-67
2022/12/12 07:41:37;;;;;;;1999.90;999.90;;;-1.50;99.90;;;;;;5049768;28;20635;-67
2022/12/12 07:44:04;;;;;;;1999.90;999.90;;;-1.60;99.90;;;;;;5047943;28;20493;-67
2022/12/12 07:46:31;;;;;;;1999.90;999.90;;;-1.50;99.90;;;;;;5048369;28;20959;-66
2022/12/12 07:48:58;;;;;;;1999.90;999.90;;;-1.50;99.90;;;;;;5048227;28;20462;-67
2022/12/12 07:51:25;;;;;;;1999.90;999.90;;;-1.50;99.90;;;;;;5059562;28;20466;-68
2022/12/12 07:53:52;;;;;;;1999.90;999.90;;;-1.40;99.90;;;;;;5062961;28;20519;-70
2022/12/12 07:56:19;;;;;;;1999.90;999.90;;;-1.40;99.90;;;;;;5057188;28;20482;-67
2022/12/12 07:58:47;;;;;;;1999.90;999.90;;;-1.30;99.90;;;;;;5048326;28;20473;-67
2022/12/12 08:01:16;;;;;;;1999.90;999.90;;;-1.20;99.90;;;;;;5046466;28;20959;-67
2022/12/12 08:03:44;;;;;;;1999.90;999.90;;;-1.20;99.90;;;;;;5047708;28;20474;-67
2022/12/12 08:06:11;;;;;;;1999.90;999.90;;;-1.20;99.90;;;;;;5050176;28;20462;-68
2022/12/12 08:08:38;;;;;;;1999.90;999.90;;;-1.20;99.90;;;;;;5050104;28;20458;-68
2022/12/12 08:11:06;;;;;;;1999.90;999.90;;;-1.10;99.90;;;;;;5046837;28;20845;-67
2022/12/12 08:13:35;;;;;;;1999.90;999.90;;;-1.10;99.90;;;;;;5051606;28;20998;-67
2022/12/12 08:16:05;;;;;;;1999.90;999.90;;;-1.10;99.90;;;;;;5045755;28;21008;-67
2022/12/12 08:18:32;;;;;;;1999.90;999.90;;;-1.00;99.90;;;;;;5045131;28;20454;-68
2022/12/12 08:20:58;;;;;;;1999.90;999.90;;;-1.10;99.90;;;;;;5052989;28;20473;-67
2022/12/12 08:23:25;;;;;;;1999.90;999.90;;;-1.10;99.90;;;;;;5049568;28;20485;-67
2022/12/12 08:25:52;;;;;;;1999.90;999.90;;;-1.10;99.90;;;;;;5047606;28;20461;-67
2022/12/12 08:28:19;;;;;;;1999.90;999.90;;;-0.90;99.90;;;;;;5048462;28;20450;-67
2022/12/12 08:30:49;;;;;;;1999.90;999.90;;;-0.80;99.90;;;;;;5046193;28;20470;-67
2022/12/12 08:33:18;;;;;;;1999.90;999.90;;;-0.70;99.90;;;;;;5044867;28;20473;-67
2022/12/12 08:35:44;;;;;;;1999.90;999.90;;;-0.60;99.90;;;;;;5044443;28;20854;-67
2022/12/12 08:38:11;;;;;;;1999.90;999.90;;;-0.60;99.90;;;;;;5048823;28;20860;-67
2022/12/12 08:40:38;;;;;;;1999.90;999.90;;;-0.60;99.90;;;;;;5049529;28;20462;-66
2022/12/12 08:43:05;;;;;;;1999.90;999.90;;;-0.60;99.90;;;;;;5048213;28;20482;-67
2022/12/12 08:45:31;;;;;;;1999.90;999.90;;;-0.60;99.90;;;;;;5047322;28;20462;-67
2022/12/12 08:47:58;;;;;;;1999.90;999.90;;;-0.60;99.90;;;;;;5047816;28;20879;-69
2022/12/12 08:50:26;;;;;;;1999.90;999.90;;;-0.50;99.90;;;;;;5047597;28;20458;-67
2022/12/12 08:52:53;;;;;;;1999.90;999.90;;;-0.40;99.90;;;;;;5048213;28;20486;-66
2022/12/12 08:55:20;;;;;;;1999.90;999.90;;;-0.50;99.90;;;;;;5048623;28;20459;-67
2022/12/12 08:57:47;;;;;;;1999.90;999.90;;;-0.50;99.90;;;;;;5047791;28;21040;-65
2022/12/12 09:00:15;;;;;;;1999.90;999.90;;;-0.50;99.90;;;;;;5044506;28;20466;-64
2022/12/12 09:02:42;;;;;;;1999.90;999.90;;;-0.40;99.90;;;;;;5050575;28;20477;-65
2022/12/12 09:05:09;;;;;;;1999.90;999.90;;;-0.20;99.90;;;;;;5063481;28;20448;-66
2022/12/12 09:07:37;;;;;;;1999.90;999.90;;;-0.10;99.90;;;;;;5074841;28;20949;-68
2022/12/12 09:10:05;;;;;;;1999.90;999.90;;;-0.20;99.90;;;;;;5075345;28;20441;-67
2022/12/12 09:12:32;;;;;;;1999.90;999.90;;;-0.10;99.90;;;;;;5075052;28;20461;-67
2022/12/12 09:14:59;;;;;;;1999.90;999.90;;;-0.20;99.90;;;;;;5074109;28;20445;-66
2022/12/12 09:17:25;;;;;;;1999.90;999.90;;;-0.30;99.90;;;;;;5066561;28;20474;-65
2022/12/12 09:19:52;;;;;;;1999.90;999.90;;;-0.30;99.90;;;;;;5070312;28;20605;-65
2022/12/12 09:22:19;;;;;;;1999.90;999.90;;;-0.20;99.90;;;;;;5062914;28;20492;-64
2022/12/12 09:24:47;;;;;;;1999.90;999.90;;;-0.10;99.90;;;;;;5053720;28;20453;-67
2022/12/12 09:27:14;;;;;;;1999.90;999.90;;;0.00;99.90;;;;;;5065218;28;20434;-65
2022/12/12 09:29:40;;;;;;;1999.90;999.90;;;0.00;99.90;;;;;;5051378;28;20458;-65
2022/12/12 09:32:08;;;;;;;1999.90;999.90;;;0.10;99.90;;;;;;5046672;28;20466;-64
2022/12/12 09:34:36;;;;;;;1999.90;999.90;;;0.20;99.90;;;;;;5052934;28;20581;-65
2022/12/12 09:37:04;;;;;;;1999.90;999.90;;;0.30;99.90;;;;;;5053439;28;20488;-64
2022/12/12 09:39:31;;;;;;;1999.90;999.90;;;0.40;99.90;;;;;;5049592;28;20547;-64
2022/12/12 09:42:09;;;;;;;1999.90;999.90;;;0.40;99.90;;;;;;5051615;28;20462;-65
2022/12/12 09:44:37;;;;;;;1999.90;999.90;;;0.30;99.90;;;;;;5051725;28;20972;-65
2022/12/12 09:47:10;;;;;;;1999.90;999.90;;;0.30;99.90;;;;;;5050850;28;20459;-64
2022/12/12 09:49:44;;;;;;;1999.90;999.90;;;0.40;99.90;;;;;;5047755;28;20439;-64
2022/12/12 09:52:14;;;;;;;1999.90;999.90;;;0.30;99.90;;;;;;5054089;28;20478;-65
2022/12/12 09:54:41;;;;;;;1999.90;999.90;;;0.40;99.90;;;;;;5053314;28;20454;-65
2022/12/12 09:57:23;;;;;;;1999.90;999.90;;;0.50;99.90;;;;;;5051574;28;20997;-65
2022/12/12 09:59:57;;;;;;;1999.90;999.90;;;0.50;99.90;;;;;;5053467;28;20528;-65
2022/12/12 10:02:47;;;;;;;1999.90;999.90;;;0.50;99.90;;;;;;5054219;28;20485;-64
2022/12/12 10:05:27;;;;;;;1999.90;999.90;;;0.50;99.90;;;;;;5048216;28;20461;-64
2022/12/12 10:08:03;;;;;;;1999.90;999.90;;;0.50;99.90;;;;;;5049700;28;20456;-64
2022/12/12 10:10:33;;;;;;;1999.90;999.90;;;0.40;99.90;;;;;;5048108;28;20462;-64
2022/12/12 10:13:03;;;;;;;1999.90;999.90;;;0.40;99.90;;;;;;5051440;28;20484;-65
2022/12/12 10:15:36;;;;;;;1999.90;999.90;;;0.40;99.90;;;;;;5044479;28;20449;-65
2022/12/12 10:18:06;;;;;;;1999.90;999.90;;;0.40;99.90;;;;;;5053926;28;20482;-64
2022/12/12 10:20:40;;;;;;;1999.90;999.90;;;0.40;99.90;;;;;;5053495;28;20438;-64
2022/12/12 10:23:18;;;;;;;1999.90;999.90;;;0.60;99.90;;;;;;5053708;28;21007;-65
2022/12/12 10:25:51;;;;;;;1999.90;999.90;;;0.60;99.90;;;;;;5053012;28;20895;-64
2022/12/12 10:28:21;;;;;;;1999.90;999.90;;;0.60;99.90;;;;;;5053512;28;20434;-65
2022/12/12 10:31:01;;;;;;;1999.90;999.90;;;0.60;99.90;;;;;;5053651;28;20487;-65
2022/12/12 10:33:40;;;;;;;1999.90;999.90;;;0.50;99.90;;;;;;5052637;28;20474;-67
2022/12/12 10:36:17;;;;;;;1999.90;999.90;;;0.60;99.90;;;;;;5052580;28;20445;-67
2022/12/12 10:39:01;;;;;;;1999.90;999.90;;;0.60;99.90;;;;;;5054236;28;20446;-66
2022/12/12 10:41:39;;;;;;;1999.90;999.90;;;0.60;99.90;;;;;;5050733;28;20458;-64
2022/12/12 10:44:15;;;;;;;1999.90;999.90;;;0.60;99.90;;;;;;5048832;28;20897;-64
2022/12/12 10:46:47;;;;;;;1999.90;999.90;;;0.70;99.90;;;;;;5049148;28;20953;-64
2022/12/12 10:49:17;;;;;;;1999.90;999.90;;;0.80;99.90;;;;;;5045204;28;20463;-64
2022/12/12 10:51:45;;;;;;;1999.90;999.90;;;0.90;99.90;;;;;;5047478;28;20592;-64
2022/12/12 10:54:17;;;;;;;1999.90;999.90;;;0.80;99.90;;;;;;5048799;28;20459;-65
2022/12/12 10:57:20;;;;;;;1999.90;999.90;;;0.70;99.90;;;;;;5043293;28;20881;-64
2022/12/12 10:59:52;;;;;;;1999.90;999.90;;;0.60;99.90;;;;;;5040926;28;20469;-64
2022/12/12 11:02:35;;;;;;;1999.90;999.90;;;0.60;99.90;;;;;;5049139;28;21018;-64
2022/12/12 11:05:17;;;;;;;1999.90;999.90;;;0.70;99.90;;;;;;5048985;28;20508;-64
2022/12/12 11:07:46;;;;;;;1999.90;999.90;;;0.80;99.90;;;;;;5040401;28;20440;-64
2022/12/12 11:10:25;;;;;;;1999.90;999.90;;;0.80;99.90;;;;;;5044653;28;20446;-63
2022/12/12 11:12:57;;;;;;;1999.90;999.90;;;0.80;99.90;;;;;;5045763;28;20482;-64
2022/12/12 11:15:38;;;;;;;1999.90;999.90;;;0.90;99.90;;;;;;5047072;28;20466;-65
2022/12/12 11:18:05;;;;;;;1999.90;999.90;;;1.00;99.90;;;;;;5047124;28;20469;-64
2022/12/12 11:20:31;;;;;;;1999.90;999.90;;;0.90;99.90;;;;;;5048653;28;20462;-65
2022/12/12 11:22:58;;;;;;;1999.90;999.90;;;1.00;99.90;;;;;;5044823;28;20485;-64
2022/12/12 11:25:28;;;;;;;1999.90;999.90;;;0.90;99.90;;;;;;5046996;28;20466;-64
2022/12/12 11:27:58;;;;;;;1999.90;999.90;;;1.00;99.90;;;;;;5048789;28;20506;-65
2022/12/12 11:30:33;;;;;;;1999.90;999.90;;;1.10;99.90;;;;;;5049128;28;20455;-64
2022/12/12 11:33:02;;;;;;;1999.90;999.90;;;1.10;99.90;;;;;;5047016;28;20859;-64
2022/12/12 11:35:32;;;;;;;1999.90;999.90;;;1.10;99.90;;;;;;5044179;28;20458;-64
2022/12/12 11:38:02;;;;;;;1999.90;999.90;;;1.00;99.90;;;;;;5048943;28;20480;-64
2022/12/12 11:40:31;;;;;;;1999.90;999.90;;;1.20;99.90;;;;;;5045279;28;21001;-64
2022/12/12 11:43:17;;;;;;;1999.90;999.90;;;1.30;99.90;;;;;;5048163;28;20486;-64
2022/12/12 11:45:58;;;;;;;1999.90;999.90;;;1.40;99.90;;;;;;5046232;28;20954;-64
2022/12/12 11:48:40;;;;;;;1999.90;999.90;;;1.60;99.90;;;;;;5049509;28;20447;-65
2022/12/12 11:51:08;;;;;;;1999.90;999.90;;;1.70;99.90;;;;;;5049268;28;20833;-65
2022/12/12 11:53:37;;;;;;;1999.90;999.90;;;1.50;99.90;;;;;;5051840;28;20501;-65
2022/12/12 11:56:20;;;;;;;1999.90;999.90;;;1.50;99.90;;;;;;5045902;28;20951;-66
2022/12/12 11:58:53;;;;;;;1999.90;999.90;;;1.50;99.90;;;;;;5044492;28;20446;-65
2022/12/12 12:01:30;;;;;;;1999.90;999.90;;;1.30;99.90;;;;;;5046928;28;20961;-65
2022/12/12 12:04:12;;;;;;;1999.90;999.90;;;1.30;99.90;;;;;;5047475;28;20486;-65
2022/12/12 12:06:56;;;;;;;1999.90;999.90;;;1.30;99.90;;;;;;5044940;28;20456;-65
2022/12/12 12:09:32;;;;;;;1999.90;999.90;;;1.30;99.90;;;;;;5047052;28;20469;-65
2022/12/12 12:12:07;;;;;;;1999.90;999.90;;;1.20;99.90;;;;;;5047429;28;20473;-65
2022/12/12 12:15:04;;;;;;;1999.90;999.90;;;1.20;99.90;;;;;;5043473;28;20485;-65
2022/12/12 12:17:57;;;;;;;1999.90;999.90;;;1.10;99.90;;;;;;5048009;28;20473;-66
2022/12/12 12:20:37;;;;;;;1999.90;999.90;;;1.00;99.90;;;;;;5049747;28;20451;-65
2022/12/12 12:23:17;;;;;;;1999.90;999.90;;;1.00;99.90;;;;;;5050507;28;20481;-66
2022/12/12 12:25:51;;;;;;;1999.90;999.90;;;1.00;99.90;;;;;;5048840;28;20988;-65
2022/12/12 12:28:52;;;;;;;1999.90;999.90;;;1.00;99.90;;;;;;5047544;28;20987;-66